Time;durP1;ratioP1;P1;durP2;ratioP2;P2;SDS_P1;SDS_P2;PMS_P1;PMS_P2;Temp;Humidity;BMP_temperature;BMP_pressure;BME280_temperature;BME280_humidity;BME280_pressure;Samples;Min_cycle;Max_cycle;Signal;HPM_P1;HPM_P2
2022/03/18 00:00:49;;;;;;;15.48;9.98;;;;;;;-2.00;100.00;92166.47;5051049;28;20029;-65
2022/03/18 00:03:14;;;;;;;15.27;10.32;;;;;;;-1.94;100.00;92175.28;5050646;28;20513;-66
2022/03/18 00:05:41;;;;;;;15.35;9.57;;;;;;;-1.96;100.00;92187.72;5050528;28;20052;-66
2022/03/18 00:08:07;;;;;;;17.30;10.30;;;;;;;-2.08;100.00;92181.50;5050521;28;20032;-66
2022/03/18 00:10:33;;;;;;;16.23;10.35;;;;;;;-2.08;100.00;92176.28;5050608;28;20041;-66
2022/03/18 00:12:58;;;;;;;12.32;8.65;;;;;;;-2.31;100.00;92179.31;5050832;28;20501;-66
2022/03/18 00:15:25;;;;;;;8.95;6.13;;;;;;;-2.33;100.00;92181.31;5049343;28;20110;-66
2022/03/18 00:17:51;;;;;;;9.00;6.47;;;;;;;-2.46;100.00;92182.91;5050585;28;20021;-66
2022/03/18 00:20:17;;;;;;;8.70;6.30;;;;;;;-2.46;100.00;92193.34;5050515;28;20041;-65
2022/03/18 00:22:44;;;;;;;15.10;9.65;;;;;;;-2.47;100.00;92190.94;5050434;28;20021;-66
2022/03/18 00:25:10;;;;;;;12.48;8.55;;;;;;;-2.45;100.00;92189.72;5050546;28;20036;-65
2022/03/18 00:27:38;;;;;;;15.18;9.48;;;;;;;-2.46;100.00;92190.72;5050553;28;20378;-65
2022/03/18 00:30:05;;;;;;;15.70;9.82;;;;;;;-2.58;100.00;92179.28;5050378;28;20025;-65
2022/03/18 00:32:31;;;;;;;13.45;9.02;;;;;;;-2.57;100.00;92182.69;5050389;28;20039;-66
2022/03/18 00:34:56;;;;;;;9.95;6.70;;;;;;;-2.63;100.00;92194.72;5050448;28;20414;-65
2022/03/18 00:37:22;;;;;;;16.88;10.80;;;;;;;-2.77;100.00;92180.88;5050383;28;20056;-65
2022/03/18 00:39:48;;;;;;;16.27;11.30;;;;;;;-2.73;100.00;92191.69;5050342;28;20040;-65
2022/03/18 00:42:13;;;;;;;17.83;10.77;;;;;;;-2.71;100.00;92177.47;5049029;28;20116;-66
2022/03/18 00:44:40;;;;;;;14.40;10.50;;;;;;;-2.81;100.00;92195.28;5050279;28;20029;-66
2022/03/18 00:52:34;;;;;;;16.23;9.95;;;;;;;-3.05;100.00;92209.63;5050156;28;20044;-65
2022/03/18 00:55:00;;;;;;;14.65;9.07;;;;;;;-3.10;100.00;92206.81;5052916;28;20479;-65
2022/03/18 00:57:25;;;;;;;14.90;8.43;;;;;;;-3.11;100.00;92212.22;5053844;28;20124;-65
2022/03/18 00:59:51;;;;;;;17.45;12.30;;;;;;;-3.14;100.00;92215.22;5053787;28;20502;-65
2022/03/18 01:02:16;;;;;;;20.35;12.02;;;;;;;-3.09;100.00;92208.44;5053582;28;20025;-65
2022/03/18 01:04:42;;;;;;;18.27;11.07;;;;;;;-3.09;100.00;92205.81;5053483;28;20130;-65
2022/03/18 01:07:07;;;;;;;24.40;13.18;;;;;;;-3.08;100.00;92202.22;5053664;28;20028;-65
2022/03/18 01:09:32;;;;;;;18.20;11.07;;;;;;;-3.12;100.00;92206.22;5053372;28;20465;-65
2022/03/18 01:11:58;;;;;;;12.23;8.32;;;;;;;-3.26;100.00;92216.78;5053523;28;20025;-65
2022/03/18 01:14:23;;;;;;;22.23;10.75;;;;;;;-3.40;100.00;92206.31;5053398;28;20029;-65
2022/03/18 01:16:49;;;;;;;16.58;11.23;;;;;;;-3.40;100.00;92214.09;5053504;28;20025;-65
2022/03/18 01:19:15;;;;;;;16.98;10.73;;;;;;;-3.42;100.00;92229.09;5053442;28;20029;-65
2022/03/18 01:21:40;;;;;;;10.27;8.18;;;;;;;-3.45;100.00;92220.91;5053427;28;20824;-65
2022/03/18 01:24:06;;;;;;;11.95;8.85;;;;;;;-3.49;100.00;92224.84;5053238;28;20032;-65
2022/03/18 01:26:31;;;;;;;16.95;9.80;;;;;;;-3.46;100.00;92221.88;5053317;28;20052;-65
2022/03/18 01:28:58;;;;;;;15.00;11.30;;;;;;;-3.52;100.00;92228.66;5053237;28;20029;-66
2022/03/18 01:31:24;;;;;;;19.52;12.50;;;;;;;-3.45;100.00;92219.09;5053212;28;20532;-64
2022/03/18 01:33:50;;;;;;;21.20;14.52;;;;;;;-3.30;100.00;92220.75;5053040;28;20029;-64
2022/03/18 01:36:15;;;;;;;25.75;15.55;;;;;;;-3.18;100.00;92221.78;5053048;28;20059;-64
2022/03/18 01:38:41;;;;;;;23.95;14.73;;;;;;;-3.10;100.00;92229.44;5053098;28;20486;-64
2022/03/18 01:41:07;;;;;;;23.73;15.55;;;;;;;-3.06;100.00;92228.06;5052979;28;20479;-65
2022/03/18 01:43:41;;;;;;;25.40;14.85;;;;;;;-3.08;100.00;92227.44;5052904;28;20032;-64
2022/03/18 01:46:07;;;;;;;16.27;10.27;;;;;;;-3.20;100.00;92229.00;5053180;28;20445;-64
2022/03/18 01:48:33;;;;;;;20.73;12.82;;;;;;;-3.41;100.00;92224.72;5052833;28;20035;-65
2022/03/18 01:50:59;;;;;;;14.18;9.65;;;;;;;-3.42;100.00;92230.91;5053017;28;20056;-65
2022/03/18 01:53:25;;;;;;;23.40;13.93;;;;;;;-3.49;100.00;92230.06;5052749;28;20600;-63
2022/03/18 01:55:51;;;;;;;24.52;14.63;;;;;;;-3.58;100.00;92228.63;5052759;28;20052;-64
2022/03/18 01:58:16;;;;;;;17.75;10.77;;;;;;;-3.59;100.00;92221.81;5052664;28;20020;-63
2022/03/18 02:00:42;;;;;;;22.08;11.43;;;;;;;-3.67;100.00;92226.16;5052595;28;20029;-63
2022/03/18 02:03:07;;;;;;;18.70;11.23;;;;;;;-3.70;100.00;92230.94;5052481;28;20048;-64
2022/03/18 02:05:33;;;;;;;23.88;13.60;;;;;;;-3.68;100.00;92229.75;5051903;28;20041;-64
2022/03/18 02:08:01;;;;;;;25.00;15.25;;;;;;;-3.54;100.00;92238.44;5052416;28;20112;-64
2022/03/18 02:10:26;;;;;;;23.55;14.93;;;;;;;-3.51;100.00;92235.44;5052487;28;20064;-65
2022/03/18 02:12:52;;;;;;;28.23;17.42;;;;;;;-3.52;100.00;92233.84;5052335;28;20052;-65
2022/03/18 02:15:17;;;;;;;25.83;14.20;;;;;;;-3.51;100.00;92232.03;5052398;28;20028;-65
2022/03/18 02:17:43;;;;;;;27.65;17.38;;;;;;;-3.50;100.00;92225.84;5052285;28;20036;-64
2022/03/18 02:20:08;;;;;;;21.90;12.52;;;;;;;-3.56;100.00;92227.44;5052170;28;20036;-63
2022/03/18 02:22:39;;;;;;;17.05;10.48;;;;;;;-3.50;100.00;92231.84;5052033;28;20041;-64
2022/03/18 02:25:09;;;;;;;28.20;15.45;;;;;;;-3.60;100.00;92230.63;5052152;28;20111;-64
2022/03/18 02:27:35;;;;;;;28.50;15.80;;;;;;;-3.59;100.00;92227.81;5052077;28;20438;-64
2022/03/18 02:30:01;;;;;;;24.23;14.95;;;;;;;-3.44;100.00;92235.50;5052043;28;20442;-64
2022/03/18 02:32:27;;;;;;;19.52;12.35;;;;;;;-3.56;100.00;92240.44;5052005;28;20033;-65
2022/03/18 02:34:52;;;;;;;24.25;14.60;;;;;;;-3.63;100.00;92229.16;5051995;28;20033;-66
2022/03/18 02:37:18;;;;;;;22.30;12.57;;;;;;;-3.69;100.00;92222.16;5051845;28;20043;-66
2022/03/18 02:39:43;;;;;;;18.55;10.85;;;;;;;-3.74;100.00;92227.13;5051899;28;20545;-66
2022/03/18 02:42:09;;;;;;;22.45;14.02;;;;;;;-3.74;100.00;92227.13;5051788;28;20490;-67
2022/03/18 02:44:34;;;;;;;12.18;9.50;;;;;;;-3.76;100.00;92227.31;5051762;28;20028;-66
2022/03/18 02:47:00;;;;;;;20.80;13.57;;;;;;;-3.82;100.00;92235.06;5051787;28;20021;-66
2022/03/18 02:49:25;;;;;;;16.35;10.85;;;;;;;-3.79;100.00;92240.69;5051699;28;20021;-66
2022/03/18 02:51:51;;;;;;;20.23;12.30;;;;;;;-3.68;100.00;92244.56;5051585;28;20033;-66
2022/03/18 02:54:17;;;;;;;16.60;10.60;;;;;;;-3.79;100.00;92248.47;5051584;28;20047;-66
2022/03/18 02:56:43;;;;;;;28.23;14.85;;;;;;;-3.72;100.00;92251.13;5051552;28;20029;-66
2022/03/18 02:59:08;;;;;;;23.27;12.35;;;;;;;-3.62;100.00;92257.63;5051519;28;20033;-66
2022/03/18 03:01:34;;;;;;;14.60;9.38;;;;;;;-3.63;100.00;92257.78;5051483;28;20040;-66
2022/03/18 03:04:00;;;;;;;26.83;15.68;;;;;;;-3.58;100.00;92259.81;5051404;28;20036;-65
2022/03/18 03:09:11;;;;;;;19.55;11.68;;;;;;;-3.83;100.00;92277.66;5031356;28;20514;-66
2022/03/18 03:11:36;;;;;;;26.10;15.02;;;;;;;-3.86;100.00;92278.84;5031356;28;20029;-66
2022/03/18 03:14:02;;;;;;;25.95;16.40;;;;;;;-3.86;100.00;92278.84;5031282;28;20041;-66
2022/03/18 03:16:28;;;;;;;22.23;14.05;;;;;;;-3.78;100.00;92281.31;5030499;28;20503;-65
2022/03/18 03:18:54;;;;;;;14.85;9.70;;;;;;;-3.92;100.00;92277.81;5031305;28;20034;-66
2022/03/18 03:21:19;;;;;;;20.40;12.82;;;;;;;-3.83;100.00;92281.06;5031320;28;20030;-66
2022/03/18 03:23:45;;;;;;;16.40;8.55;;;;;;;-3.87;100.00;92279.84;5031215;28;20171;-66
2022/03/18 03:26:12;;;;;;;12.10;7.03;;;;;;;-3.92;100.00;92275.22;5031523;28;20056;-66
2022/03/18 03:28:38;;;;;;;11.20;7.63;;;;;;;-3.91;100.00;92276.00;5031130;28;20033;-66
2022/03/18 03:31:04;;;;;;;14.02;6.85;;;;;;;-4.01;100.00;92272.91;5031152;28;20490;-66
2022/03/18 03:33:31;;;;;;;10.32;7.18;;;;;;;-3.94;100.00;92276.41;5029763;28;20037;-65
2022/03/18 03:35:56;;;;;;;15.18;8.82;;;;;;;-3.96;100.00;92273.97;5031020;28;20037;-65
2022/03/18 03:38:23;;;;;;;11.73;7.97;;;;;;;-4.00;100.00;92280.53;5031075;28;20033;-65
2022/03/18 03:40:49;;;;;;;14.75;9.98;;;;;;;-3.99;100.00;92278.72;5031197;28;20087;-65
2022/03/18 03:43:14;;;;;;;14.30;8.82;;;;;;;-3.97;100.00;92281.94;5030953;28;20464;-65
2022/03/18 03:45:40;;;;;;;11.93;8.20;;;;;;;-3.91;100.00;92291.59;5030953;28;20034;-65
2022/03/18 03:48:07;;;;;;;12.40;8.05;;;;;;;-3.89;100.00;92286.22;5030928;28;20033;-65
2022/03/18 03:50:33;;;;;;;11.90;7.38;;;;;;;-3.87;100.00;92292.03;5031207;28;20022;-66
2022/03/18 03:52:59;;;;;;;10.65;6.38;;;;;;;-3.89;100.00;92288.81;5031062;28;20106;-65
2022/03/18 03:55:25;;;;;;;14.70;8.40;;;;;;;-3.95;100.00;92285.16;5030191;28;20025;-65
2022/03/18 03:57:51;;;;;;;14.93;9.07;;;;;;;-3.88;100.00;92295.63;5030758;28;20037;-66
2022/03/18 04:00:16;;;;;;;14.02;9.32;;;;;;;-3.83;100.00;92298.44;5030761;28;20022;-66
2022/03/18 04:02:45;;;;;;;12.05;7.05;;;;;;;-3.89;100.00;92297.41;5030758;28;20034;-66
2022/03/18 04:05:12;;;;;;;11.82;8.23;;;;;;;-3.88;100.00;92287.81;5030625;28;20116;-66
2022/03/18 04:07:40;;;;;;;13.20;8.38;;;;;;;-3.79;100.00;92315.28;5030690;28;20040;-66
2022/03/18 04:10:07;;;;;;;11.75;7.38;;;;;;;-3.80;100.00;92305.88;5030767;28;20033;-66
2022/03/18 04:12:33;;;;;;;14.43;8.95;;;;;;;-3.84;100.00;92309.84;5030652;28;20033;-66
2022/03/18 04:15:03;;;;;;;9.00;5.88;;;;;;;-3.91;100.00;92317.59;5030947;28;20041;-64
2022/03/18 04:17:43;;;;;;;13.45;7.50;;;;;;;-3.97;100.00;92326.94;5030695;28;20420;-65
2022/03/18 04:20:11;;;;;;;15.00;8.38;;;;;;;-3.95;100.00;92324.16;5030985;28;20053;-66
2022/03/18 04:22:37;;;;;;;13.23;8.13;;;;;;;-3.94;100.00;92326.59;5030572;28;20480;-66
2022/03/18 04:25:03;;;;;;;10.93;6.43;;;;;;;-3.95;100.00;92322.34;5030595;28;20443;-66
2022/03/18 04:27:29;;;;;;;9.10;5.65;;;;;;;-3.98;100.00;92327.94;5031038;28;20033;-64
2022/03/18 04:29:54;;;;;;;12.82;7.75;;;;;;;-3.99;100.00;92328.13;5034355;28;20428;-65
2022/03/18 04:32:19;;;;;;;11.23;7.20;;;;;;;-4.10;100.00;92331.22;5034274;28;20029;-63
2022/03/18 04:34:45;;;;;;;11.98;6.97;;;;;;;-4.12;100.00;92328.78;5034357;28;20025;-66
2022/03/18 04:37:10;;;;;;;12.48;7.63;;;;;;;-4.11;100.00;92340.00;5034226;28;20033;-66
2022/03/18 04:39:36;;;;;;;10.15;6.60;;;;;;;-4.14;100.00;92335.97;5034234;28;20402;-63
2022/03/18 04:42:01;;;;;;;12.93;6.53;;;;;;;-4.17;100.00;92338.97;5034094;28;20464;-64
2022/03/18 04:44:27;;;;;;;9.23;6.00;;;;;;;-4.14;100.00;92335.97;5034142;28;20021;-65
2022/03/18 04:46:52;;;;;;;16.13;8.55;;;;;;;-4.03;100.00;92351.09;5033966;28;20029;-64
2022/03/18 04:49:18;;;;;;;11.07;7.22;;;;;;;-4.03;100.00;92343.28;5034219;28;20029;-65
2022/03/18 04:51:43;;;;;;;12.85;8.13;;;;;;;-3.90;100.00;92350.41;5033901;28;20037;-66
2022/03/18 04:54:08;;;;;;;16.55;9.48;;;;;;;-3.87;100.00;92339.63;5032613;28;20037;-66
2022/03/18 04:59:19;;;;;;;14.60;9.88;;;;;;;-3.64;100.00;92355.00;5033970;28;20572;-65
2022/03/18 05:01:45;;;;;;;16.65;9.93;;;;;;;-3.55;100.00;92351.28;5034040;28;20029;-64
2022/03/18 05:04:11;;;;;;;17.80;9.50;;;;;;;-3.59;100.00;92355.25;5033822;28;20036;-65
2022/03/18 05:06:37;;;;;;;13.38;8.63;;;;;;;-3.74;100.00;92344.94;5033602;28;20042;-66
2022/03/18 05:09:02;;;;;;;15.95;10.65;;;;;;;-3.57;100.00;92353.28;5033556;28;20033;-66
2022/03/18 05:11:28;;;;;;;29.48;12.57;;;;;;;-3.64;100.00;92349.78;5033712;28;20030;-67
2022/03/18 05:13:54;;;;;;;67.93;19.05;;;;;;;-3.59;100.00;92351.84;5033631;28;20037;-65
2022/03/18 05:16:20;;;;;;;17.45;8.40;;;;;;;-3.69;100.00;92350.38;5032298;28;20030;-65
2022/03/18 05:18:46;;;;;;;15.15;9.52;;;;;;;-3.71;100.00;92360.16;5033639;28;20105;-64
2022/03/18 05:21:11;;;;;;;11.73;7.30;;;;;;;-3.63;100.00;92359.19;5033531;28;20372;-65
2022/03/18 05:23:37;;;;;;;16.35;8.68;;;;;;;-3.72;100.00;92357.75;5032103;28;20039;-66
2022/03/18 05:26:03;;;;;;;11.68;6.45;;;;;;;-3.83;100.00;92371.25;5033711;28;20037;-66
2022/03/18 05:28:29;;;;;;;15.88;8.90;;;;;;;-3.72;100.00;92378.56;5033301;28;20036;-66
2022/03/18 05:30:55;;;;;;;18.23;10.60;;;;;;;-3.38;100.00;92370.81;5033647;28;20033;-66
2022/03/18 05:33:20;;;;;;;14.63;9.10;;;;;;;-3.23;100.00;92364.72;5033183;28;20026;-66
2022/03/18 05:35:45;;;;;;;16.60;10.45;;;;;;;-2.85;100.00;92371.13;5033251;28;20033;-67
2022/03/18 05:38:11;;;;;;;20.77;12.45;;;;;;;-2.74;100.00;92381.00;5033127;28;20045;-66
2022/03/18 05:40:36;;;;;;;13.48;8.43;;;;;;;-1.65;100.00;92382.75;5032294;28;20079;-66
2022/03/18 05:43:02;;;;;;;14.52;8.63;;;;;;;-0.72;100.00;92373.84;5032987;28;20029;-66
2022/03/18 05:45:27;;;;;;;15.85;8.88;;;;;;;-1.65;100.00;92387.97;5032987;28;20034;-67
2022/03/18 05:47:53;;;;;;;15.38;7.47;;;;;;;-0.95;100.00;92389.97;5032957;28;20561;-66
2022/03/18 05:50:19;;;;;;;14.20;9.10;;;;;;;-0.20;100.00;92389.56;5032806;28;20048;-67
2022/03/18 05:52:45;;;;;;;15.38;8.90;;;;;;;1.71;96.26;92382.84;5033010;28;20116;-67
2022/03/18 05:55:11;;;;;;;10.43;7.63;;;;;;;2.43;79.69;92380.34;5032838;28;20433;-67
2022/03/18 05:57:37;;;;;;;10.27;6.53;;;;;;;0.93;83.19;92385.22;5032659;28;20029;-66
2022/03/18 06:00:03;;;;;;;14.25;8.25;;;;;;;1.66;82.70;92384.53;5032724;28;20104;-67
2022/03/18 06:02:29;;;;;;;13.13;8.95;;;;;;;1.81;77.94;92390.22;5032536;28;20072;-66
2022/03/18 06:04:54;;;;;;;13.95;8.77;;;;;;;3.71;71.71;92390.19;5027657;28;20073;-68
2022/03/18 06:07:20;;;;;;;11.70;7.82;;;;;;;4.59;67.91;92393.53;5012251;28;20113;-68
2022/03/18 06:12:30;;;;;;;15.38;10.00;;;;;;;6.06;61.84;92395.03;5012468;28;20092;-65
2022/03/18 06:14:55;;;;;;;11.48;7.97;;;;;;;6.66;59.87;92394.97;5008605;28;20033;-64
2022/03/18 06:17:20;;;;;;;9.77;7.60;;;;;;;6.37;56.76;92401.50;5012463;28;20034;-66
2022/03/18 06:19:46;;;;;;;12.65;8.05;;;;;;;6.44;56.60;92392.31;5012405;28;20490;-66
2022/03/18 06:22:12;;;;;;;11.38;8.00;;;;;;;6.19;56.47;92397.31;5012183;28;20144;-65
2022/03/18 06:24:38;;;;;;;12.32;9.13;;;;;;;6.87;55.17;92411.81;5012345;28;20092;-66
2022/03/18 06:27:04;;;;;;;13.75;7.65;;;;;;;4.84;58.29;92409.78;5011880;28;20112;-66
2022/03/18 06:29:31;;;;;;;15.48;9.73;;;;;;;6.14;59.30;92407.81;5011835;28;20458;-66
2022/03/18 06:31:58;;;;;;;13.45;8.73;;;;;;;8.66;54.04;92407.50;5020385;28;20113;-65
2022/03/18 06:34:25;;;;;;;20.83;12.85;;;;;;;10.09;48.22;92402.31;5028992;28;20029;-66
2022/03/18 06:36:52;;;;;;;28.67;15.77;;;;;;;9.43;49.39;92405.00;5031243;28;20112;-67
2022/03/18 06:39:22;;;;;;;24.15;15.75;;;;;;;8.81;48.88;92408.63;5031421;28;20099;-66
2022/03/18 06:41:48;;;;;;;18.13;11.68;;;;;;;8.38;50.75;92415.91;5029567;28;20520;-66
2022/03/18 06:44:13;;;;;;;29.27;19.60;;;;;;;8.56;50.16;92419.97;5031162;28;20034;-66
2022/03/18 06:46:39;;;;;;;34.28;20.58;;;;;;;8.85;51.10;92421.13;5031116;28;20041;-66
2022/03/18 06:49:06;;;;;;;19.88;12.20;;;;;;;9.59;48.27;92414.59;5031193;28;20026;-66
2022/03/18 06:51:31;;;;;;;26.17;15.80;;;;;;;9.79;48.18;92419.91;5031115;28;20040;-67
2022/03/18 06:53:57;;;;;;;20.15;12.75;;;;;;;10.73;46.73;92422.91;5031118;28;20041;-67
2022/03/18 06:56:25;;;;;;;16.13;11.43;;;;;;;11.33;46.04;92429.00;5030536;28;20033;-67
2022/03/18 06:58:51;;;;;;;16.08;10.20;;;;;;;11.11;44.98;92421.41;5030941;28;20104;-66
2022/03/18 07:01:16;;;;;;;22.42;15.07;;;;;;;11.92;44.36;92417.41;5029656;28;20531;-66
2022/03/18 07:03:42;;;;;;;95.43;61.72;;;;;;;12.87;43.29;92422.06;5030725;28;20032;-67
2022/03/18 07:06:07;;;;;;;11.07;9.60;;;;;;;13.97;40.97;92423.47;5030775;28;20033;-66
2022/03/18 07:08:36;;;;;;;14.55;10.48;;;;;;;14.65;40.04;92422.84;5030743;28;20033;-67
2022/03/18 07:11:04;;;;;;;16.67;11.43;;;;;;;13.27;40.68;92428.81;5030467;28;20529;-67
2022/03/18 07:13:30;;;;;;;19.50;12.45;;;;;;;12.05;43.32;92435.44;5030575;28;20049;-67
2022/03/18 07:17:54;;;;;;;15.88;11.77;;;;;;;12.44;43.27;92429.19;5030927;28;20140;-66
2022/03/18 07:18:41;;;;;;;12.65;8.73;;;;;;;10.36;46.64;92433.94;5030658;28;20029;-67
2022/03/18 07:21:08;;;;;;;10.82;8.57;;;;;;;11.53;44.07;92450.22;5031009;28;20049;-65
2022/03/18 07:23:33;;;;;;;10.57;8.73;;;;;;;10.95;46.27;92433.22;5030545;28;20041;-66
2022/03/18 07:25:59;;;;;;;12.30;9.45;;;;;;;11.81;44.26;92448.69;5030309;28;20116;-66
2022/03/18 07:28:24;;;;;;;13.38;9.43;;;;;;;10.71;46.42;92451.66;5030302;28;20025;-65
2022/03/18 07:30:50;;;;;;;15.05;13.55;;;;;;;12.08;45.51;92450.88;5030468;28;20037;-66
2022/03/18 07:33:15;;;;;;;12.77;9.55;;;;;;;12.25;44.23;92459.28;5030266;28;20025;-66
2022/03/18 07:35:42;;;;;;;10.10;8.18;;;;;;;11.29;44.58;92454.63;5030293;28;20033;-67
2022/03/18 07:38:09;;;;;;;12.98;10.20;;;;;;;11.07;45.78;92458.47;5030487;28;20033;-65
2022/03/18 07:40:38;;;;;;;12.48;9.75;;;;;;;12.86;42.82;92453.31;5029780;28;20030;-66
2022/03/18 07:43:05;;;;;;;18.92;11.18;;;;;;;11.51;45.37;92456.88;5030139;28;20036;-66
2022/03/18 07:45:32;;;;;;;17.42;11.57;;;;;;;10.97;46.58;92458.50;5030543;28;20075;-66
2022/03/18 07:48:00;;;;;;;18.20;11.13;;;;;;;10.93;46.57;92460.13;5029156;28;20411;-65
2022/03/18 07:50:28;;;;;;;10.68;7.97;;;;;;;11.55;44.93;92472.06;5030302;28;20032;-66
2022/03/18 07:52:58;;;;;;;15.93;11.65;;;;;;;11.56;45.51;92478.19;5030224;28;20064;-66
2022/03/18 07:55:26;;;;;;;17.38;10.65;;;;;;;12.14;44.03;92480.97;5030219;28;20025;-66
2022/03/18 07:57:53;;;;;;;28.25;17.30;;;;;;;14.60;41.28;92479.22;5028936;28;20120;-69
2022/03/18 08:00:19;;;;;;;9.88;5.93;;;;;;;9.79;43.09;92482.91;5008914;28;20038;-66
2022/03/18 08:02:46;;;;;;;12.95;9.15;;;;;;;7.64;48.52;92484.81;5011028;28;20041;-66
2022/03/18 08:05:13;;;;;;;18.70;11.15;;;;;;;9.28;47.15;92475.66;5014261;28;20146;-66
2022/03/18 08:07:39;;;;;;;12.90;8.38;;;;;;;9.34;45.92;92476.47;5014370;28;20095;-66
2022/03/18 08:10:07;;;;;;;11.65;8.27;;;;;;;10.80;44.22;92477.47;5014366;28;20073;-66
2022/03/18 08:12:33;;;;;;;9.63;6.35;;;;;;;10.62;43.10;92471.94;5013804;28;20128;-65
2022/03/18 08:15:00;;;;;;;18.55;11.55;;;;;;;11.79;46.03;92479.38;5014675;28;20046;-66
2022/03/18 08:17:26;;;;;;;15.02;9.93;;;;;;;13.75;40.92;92474.13;5014300;28;20050;-66
2022/03/18 08:19:52;;;;;;;16.35;9.43;;;;;;;12.52;42.43;92488.13;5014160;28;20096;-66
2022/03/18 08:22:21;;;;;;;15.85;9.60;;;;;;;13.67;40.61;92486.25;5014041;28;20048;-66
2022/03/18 08:24:46;;;;;;;22.70;12.77;;;;;;;13.17;42.45;92482.34;5015030;28;20096;-66
2022/03/18 08:27:12;;;;;;;11.45;7.97;;;;;;;12.94;41.10;92483.13;5013848;28;20050;-65
2022/03/18 08:29:38;;;;;;;9.85;8.20;;;;;;;12.47;41.58;92482.03;5013916;28;20112;-65
2022/03/18 08:32:05;;;;;;;10.93;6.75;;;;;;;10.30;42.83;92494.34;5013954;28;20038;-66
2022/03/18 08:34:31;;;;;;;11.55;7.95;;;;;;;9.61;46.62;92486.84;5013931;28;20046;-67
2022/03/18 08:36:56;;;;;;;11.00;7.25;;;;;;;10.78;44.45;92484.13;5013917;28;20025;-66
2022/03/18 08:39:21;;;;;;;10.88;7.65;;;;;;;9.38;46.65;92487.34;5013506;28;20022;-65
2022/03/18 08:41:47;;;;;;;9.88;7.45;;;;;;;9.93;46.20;92478.63;5013229;28;20105;-65
2022/03/18 08:44:14;;;;;;;16.42;8.88;;;;;;;12.19;44.91;92489.75;5012292;28;20613;-66
2022/03/18 08:46:39;;;;;;;17.08;10.85;;;;;;;12.66;44.54;92490.94;5017962;28;20415;-65
2022/03/18 08:49:05;;;;;;;14.07;8.40;;;;;;;11.97;42.25;92494.72;5033532;28;20059;-64
2022/03/18 08:51:30;;;;;;;13.50;8.93;;;;;;;13.54;42.34;92494.19;5033272;28;20025;-66
2022/03/18 08:53:56;;;;;;;10.35;8.15;;;;;;;14.44;38.61;92490.47;5033221;28;20033;-66
2022/03/18 08:56:21;;;;;;;14.25;10.07;;;;;;;13.12;40.41;92479.75;5032919;28;20132;-65
2022/03/18 08:58:49;;;;;;;16.35;10.50;;;;;;;14.71;40.05;92487.88;5033375;28;20033;-66
2022/03/18 09:01:14;;;;;;;8.93;7.07;;;;;;;11.27;40.72;92480.72;5033456;28;20025;-65
2022/03/18 09:03:40;;;;;;;14.93;8.02;;;;;;;11.77;42.27;92486.84;5033225;28;20450;-65
2022/03/18 09:06:07;;;;;;;53.05;30.20;;;;;;;11.70;45.25;92474.63;5032985;28;20073;-66
2022/03/18 09:08:32;;;;;;;43.60;27.73;;;;;;;14.65;41.84;92476.44;5033011;28;20026;-66
2022/03/18 09:10:57;;;;;;;15.50;9.23;;;;;;;14.59;38.38;92476.81;5032840;28;20080;-66
2022/03/18 09:13:23;;;;;;;11.10;7.95;;;;;;;15.61;38.42;92472.19;5033016;28;20040;-63
2022/03/18 09:15:48;;;;;;;10.93;7.13;;;;;;;14.62;37.22;92481.59;5031728;28;20037;-66
2022/03/18 09:18:14;;;;;;;11.68;6.50;;;;;;;11.02;39.51;92485.09;5032752;28;20040;-66
2022/03/18 09:20:39;;;;;;;15.65;8.00;;;;;;;11.15;44.31;92483.72;5031547;28;20040;-66
2022/03/18 09:23:08;;;;;;;12.00;8.32;;;;;;;12.42;41.43;92487.41;5032826;28;20549;-66
2022/03/18 09:25:34;;;;;;;16.38;9.60;;;;;;;11.80;43.82;92488.97;5032795;28;20037;-66
2022/03/18 09:27:59;;;;;;;217.00;24.45;;;;;;;13.18;42.63;92481.28;5032328;28;20472;-66
2022/03/18 09:30:25;;;;;;;15.20;7.88;;;;;;;13.45;39.76;92478.03;5032656;28;20018;-66
2022/03/18 09:32:50;;;;;;;20.52;8.30;;;;;;;13.03;39.34;92468.88;5032655;28;20052;-66
2022/03/18 09:35:16;;;;;;;9.32;6.57;;;;;;;10.51;41.61;92484.47;5032668;28;20021;-65
2022/03/18 09:37:42;;;;;;;16.83;10.30;;;;;;;10.63;44.90;92474.31;5032682;28;20029;-66
2022/03/18 09:40:08;;;;;;;24.73;17.50;;;;;;;13.30;42.98;92488.91;5032289;28;20104;-66
2022/03/18 09:42:53;;;;;;;15.68;10.73;;;;;;;13.97;41.59;92490.38;5032195;28;20483;-67
2022/03/18 09:45:21;;;;;;;44.08;28.13;;;;;;;11.34;43.88;92486.56;5032335;28;20040;-66
2022/03/18 09:47:48;;;;;;;19.05;11.93;;;;;;;9.36;46.75;92484.19;5032724;28;20025;-65
2022/03/18 09:50:15;;;;;;;15.15;10.50;;;;;;;9.49;46.34;92484.47;5032633;28;20052;-66
2022/03/18 09:52:42;;;;;;;19.15;11.55;;;;;;;8.84;46.58;92482.44;5032148;28;20478;-66
2022/03/18 09:55:07;;;;;;;20.67;12.52;;;;;;;11.05;42.76;92471.25;5032468;28;20021;-66
2022/03/18 09:57:33;;;;;;;13.80;9.40;;;;;;;10.79;40.31;92480.41;5032487;28;20509;-66
2022/03/18 09:59:59;;;;;;;19.67;9.40;;;;;;;11.28;39.87;92482.31;5032526;28;20028;-66
2022/03/18 10:02:28;;;;;;;13.10;9.00;;;;;;;13.15;38.43;92487.97;5032381;28;20112;-66
2022/03/18 10:04:59;;;;;;;12.13;8.00;;;;;;;12.42;38.86;92488.22;5032438;28;20049;-66
2022/03/18 10:07:26;;;;;;;28.30;7.40;;;;;;;12.98;36.39;92484.19;5032738;28;20108;-66
2022/03/18 10:10:14;;;;;;;7.70;5.82;;;;;;;14.07;34.38;92486.75;5032259;28;20388;-67
2022/03/18 10:12:45;;;;;;;10.25;7.00;;;;;;;15.38;34.38;92487.41;5032115;28;20059;-67
2022/03/18 10:15:13;;;;;;;13.27;8.73;;;;;;;14.29;33.48;92491.50;5032436;28;20506;-67
2022/03/18 10:17:49;;;;;;;15.57;6.65;;;;;;;13.77;34.81;92488.00;5032123;28;20060;-67
2022/03/18 10:20:35;;;;;;;7.57;5.90;;;;;;;10.17;39.05;92482.34;5031929;28;20047;-66
2022/03/18 10:23:19;;;;;;;11.68;6.53;;;;;;;8.92;41.69;92484.56;5031621;28;20079;-66
2022/03/18 10:25:57;;;;;;;16.55;8.35;;;;;;;8.53;41.82;92471.69;5031503;28;20132;-66
2022/03/18 10:28:37;;;;;;;19.52;9.18;;;;;;;8.85;43.81;92465.44;5031705;28;20045;-66
2022/03/18 10:31:18;;;;;;;15.23;8.07;;;;;;;9.35;43.62;92461.34;5031839;28;20055;-67
2022/03/18 10:37:04;;;;;;;12.75;8.30;;;;;;;9.93;41.95;92456.56;5032203;28;20116;-66
2022/03/18 10:39:23;;;;;;;8.43;6.32;;;;;;;9.05;41.49;92475.31;5011252;28;20041;-65
2022/03/18 10:41:49;;;;;;;13.98;8.50;;;;;;;8.27;42.49;92473.34;5011374;28;20026;-66
2022/03/18 10:44:17;;;;;;;14.65;7.93;;;;;;;6.21;46.19;92463.94;5011419;28;20041;-65
2022/03/18 10:46:43;;;;;;;13.63;9.25;;;;;;;5.95;47.19;92473.34;5011200;28;20100;-66
2022/03/18 10:49:10;;;;;;;10.23;6.88;;;;;;;7.70;43.87;92463.41;5026799;28;20068;-66
2022/03/18 10:51:38;;;;;;;10.00;7.72;;;;;;;10.11;41.13;92470.13;5011302;28;20030;-66
2022/03/18 10:54:04;;;;;;;13.63;7.80;;;;;;;13.40;37.58;92472.72;5010808;28;20495;-66
2022/03/18 10:56:56;;;;;;;9.10;5.50;;;;;;;12.98;35.21;92468.16;5011539;28;20053;-67
2022/03/18 10:59:24;;;;;;;8.43;5.75;;;;;;;12.45;34.95;92468.16;5011119;28;20064;-66
2022/03/18 11:01:51;;;;;;;15.73;6.75;;;;;;;10.74;38.24;92469.78;5019613;28;20060;-65
2022/03/18 11:04:17;;;;;;;7.88;5.72;;;;;;;9.61;39.00;92470.91;5028742;28;20039;-66
2022/03/18 11:07:29;;;;;;;12.82;7.25;;;;;;;10.76;37.40;92465.78;5030759;28;20045;-65
2022/03/18 11:11:06;;;;;;;14.40;8.35;;;;;;;11.33;39.16;92463.63;5028043;28;20037;-65
2022/03/18 11:12:21;;;;;;;9.20;6.47;;;;;;;8.15;42.57;92471.94;5030762;28;20467;-65
2022/03/18 11:14:51;;;;;;;20.65;7.15;;;;;;;10.79;41.11;92464.44;5030897;28;20032;-64
2022/03/18 11:17:17;;;;;;;10.10;7.68;;;;;;;12.34;37.43;92462.13;5031185;28;20091;-66
2022/03/18 11:19:44;;;;;;;9.57;5.30;;;;;;;10.71;37.93;92464.97;5030731;28;20109;-67
2022/03/18 11:22:10;;;;;;;11.20;7.60;;;;;;;10.19;38.16;92452.84;5030454;28;20040;-67
2022/03/18 11:24:37;;;;;;;33.55;9.55;;;;;;;11.68;37.65;92457.31;5030765;28;20021;-67
2022/03/18 11:27:03;;;;;;;18.30;8.55;;;;;;;10.77;39.10;92448.72;5030829;28;20030;-66
2022/03/18 11:29:31;;;;;;;18.23;10.55;;;;;;;11.24;37.68;92455.44;5030883;28;20021;-67
2022/03/18 11:32:15;;;;;;;9.55;5.90;;;;;;;9.38;40.22;92453.63;5030430;28;20072;-66
2022/03/18 11:34:52;;;;;;;33.53;8.50;;;;;;;12.09;37.34;92447.16;5030919;28;20475;-67